createdAt,value
2023-03-31T03:47:57.066Z,888.72
2023-03-31T03:50:23.731Z,883.90
2023-03-31T03:52:50.709Z,882.97
2023-03-31T03:55:17.792Z,886.08
2023-03-31T03:57:44.419Z,881.90
2023-03-31T04:00:12.418Z,877.95
2023-03-31T04:02:40.084Z,884.42
2023-03-31T04:05:07.335Z,881.45
2023-03-31T04:07:33.996Z,887.38
2023-03-31T04:10:00.722Z,875.05
2023-03-31T04:12:27.391Z,883.40
2023-03-31T04:14:54.090Z,876.65
2023-03-31T04:17:32.976Z,876.85
2023-03-31T04:20:09.779Z,884.05
2023-03-31T04:22:40.633Z,876.00
2023-03-31T04:25:10.534Z,883.25
2023-03-31T04:27:37.181Z,883.10
2023-03-31T04:30:04.046Z,881.40
2023-03-31T04:32:33.009Z,880.03
2023-03-31T04:35:02.598Z,869.40
2023-03-31T04:37:34.626Z,877.83
2023-03-31T04:40:08.122Z,866.08
2023-03-31T04:42:35.272Z,868.67
2023-03-31T04:45:02.761Z,876.25
2023-03-31T04:47:30.097Z,863.10
2023-03-31T04:49:56.961Z,875.22
2023-03-31T04:52:23.620Z,873.70
2023-03-31T04:54:50.433Z,869.33
2023-03-31T04:57:17.055Z,866.22
2023-03-31T04:59:43.679Z,873.10
2023-03-31T05:02:10.510Z,878.05
2023-03-31T05:04:37.682Z,874.00
2023-03-31T05:07:04.741Z,877.00
2023-03-31T05:09:32.235Z,871.92
2023-03-31T05:11:59.624Z,864.03
2023-03-31T05:14:26.226Z,859.43
2023-03-31T05:16:52.946Z,876.15
2023-03-31T05:19:19.574Z,856.50
2023-03-31T05:21:46.683Z,861.65
2023-03-31T05:24:13.945Z,863.93
2023-03-31T05:26:41.211Z,868.03
2023-03-31T05:29:07.867Z,861.90
2023-03-31T05:31:34.536Z,867.08
2023-03-31T05:34:01.154Z,871.88
2023-03-31T05:36:27.819Z,868.53
2023-03-31T05:38:54.474Z,871.25
2023-03-31T05:41:21.442Z,870.10
2023-03-31T05:43:48.259Z,874.90
2023-03-31T05:46:15.417Z,872.28
2023-03-31T05:48:42.024Z,883.30
2023-03-31T05:51:08.654Z,877.78
2023-03-31T05:53:35.937Z,873.95
2023-03-31T05:56:05.364Z,875.50
2023-03-31T05:58:35.740Z,879.30
2023-03-31T06:01:11.338Z,872.40
2023-03-31T06:03:41.403Z,877.13
2023-03-31T06:06:09.451Z,868.00
2023-03-31T06:08:37.850Z,873.33
2023-03-31T06:11:09.434Z,870.67
2023-03-31T06:13:37.384Z,866.67
2023-03-31T06:16:04.931Z,860.13
2023-03-31T06:18:33.766Z,854.87
2023-03-31T06:21:00.778Z,842.75
2023-03-31T06:23:27.599Z,844.47
2023-03-31T06:25:54.430Z,845.00
2023-03-31T06:28:21.582Z,850.70
2023-03-31T06:30:48.485Z,844.90
2023-03-31T06:33:16.340Z,855.78
2023-03-31T06:35:43.038Z,844.75
2023-03-31T06:38:09.757Z,851.10
2023-03-31T06:40:36.856Z,860.92
2023-03-31T06:43:03.513Z,848.53
2023-03-31T06:45:30.250Z,846.80
2023-03-31T06:47:56.936Z,852.20
2023-03-31T06:50:23.607Z,849.05
2023-03-31T06:52:53.014Z,850.75
2023-03-31T06:55:19.664Z,848.70
2023-03-31T06:57:46.319Z,854.65
2023-03-31T07:00:13.821Z,855.85
2023-03-31T07:02:40.793Z,868.55
2023-03-31T07:05:07.873Z,862.65
2023-03-31T07:07:35.764Z,873.58
2023-03-31T07:10:02.413Z,874.33
2023-03-31T07:12:29.453Z,886.38
2023-03-31T07:14:56.122Z,888.22
2023-03-31T07:17:25.405Z,879.83
2023-03-31T07:19:52.149Z,885.75
2023-03-31T07:22:18.803Z,888.03
2023-03-31T07:24:46.048Z,889.15
2023-03-31T07:27:12.634Z,891.85
2023-03-31T07:29:39.306Z,887.58
2023-03-31T07:32:06.458Z,885.60
2023-03-31T07:34:34.992Z,895.20
2023-03-31T07:37:03.651Z,888.40
2023-03-31T07:39:30.508Z,889.33
2023-03-31T07:41:57.103Z,886.83
2023-03-31T07:44:23.808Z,892.97
2023-03-31T07:46:50.439Z,898.30
2023-03-31T07:49:17.162Z,902.03
2023-03-31T07:51:43.762Z,911.85
2023-03-31T07:54:10.662Z,916.03
2023-03-31T07:56:37.649Z,908.20
2023-03-31T07:59:04.267Z,901.13
2023-03-31T08:01:31.150Z,908.92
2023-03-31T08:03:58.904Z,914.35
2023-03-31T08:06:26.646Z,910.13
2023-03-31T08:08:53.458Z,904.72
2023-03-31T08:11:21.354Z,903.87
2023-03-31T08:13:48.468Z,896.65
2023-03-31T08:16:15.611Z,898.33
2023-03-31T08:18:42.535Z,911.35
2023-03-31T08:21:12.473Z,920.40
2023-03-31T08:23:39.105Z,962.20
2023-03-31T08:26:17.358Z,971.92
2023-03-31T08:28:50.947Z,989.28
2023-03-31T08:31:19.943Z,1016.30
2023-03-31T08:33:47.188Z,1042.17
2023-03-31T08:36:14.676Z,1046.57
2023-03-31T08:38:45.868Z,1051.85
2023-03-31T08:41:34.345Z,1056.28
2023-03-31T08:44:06.735Z,1066.30
2023-03-31T08:46:35.737Z,1075.30
2023-03-31T08:49:04.558Z,1084.85
2023-03-31T08:51:45.237Z,1077.03
2023-03-31T08:54:20.916Z,1070.32
2023-03-31T08:56:49.984Z,1048.80
2023-03-31T08:59:38.966Z,1034.30
2023-03-31T09:02:33.027Z,1023.67
2023-03-31T09:05:11.660Z,1015.13
2023-03-31T09:07:59.991Z,1054.15
2023-03-31T09:10:35.937Z,1080.85
2023-03-31T09:13:47.150Z,1091.57
2023-03-31T09:16:32.633Z,1084.50
2023-03-31T09:19:02.903Z,1065.43
2023-03-31T09:21:35.472Z,1040.00
2023-03-31T09:24:13.774Z,1021.15
2023-03-31T09:26:49.191Z,1008.80
2023-03-31T09:29:24.330Z,996.90
2023-03-31T09:31:51.150Z,990.83
2023-03-31T09:34:26.115Z,975.13
2023-03-31T09:36:52.766Z,983.90
2023-03-31T09:39:19.706Z,975.33
2023-03-31T09:41:49.310Z,976.90
2023-03-31T09:44:50.143Z,971.80
2023-03-31T09:47:25.471Z,965.40
2023-03-31T09:49:53.628Z,965.40
2023-03-31T09:52:33.286Z,957.15
2023-03-31T09:55:03.213Z,940.42
2023-03-31T09:57:34.135Z,945.22
2023-03-31T10:00:13.531Z,945.47
2023-03-31T10:02:49.602Z,947.60
2023-03-31T10:05:33.971Z,950.92
2023-03-31T10:08:23.577Z,967.00
2023-03-31T10:10:53.331Z,997.40
2023-03-31T10:13:29.405Z,1045.23
2023-03-31T10:16:04.325Z,1068.35
2023-03-31T10:18:37.221Z,1092.55
2023-03-31T10:21:06.614Z,1111.90
2023-03-31T10:23:35.954Z,1129.28
2023-03-31T10:26:03.763Z,1134.45
2023-03-31T10:28:36.093Z,1138.78
2023-03-31T10:31:04.353Z,1142.38
2023-03-31T10:33:35.197Z,1156.55
2023-03-31T10:36:15.517Z,1148.00
2023-03-31T10:38:47.878Z,1151.43
2023-03-31T10:41:20.759Z,1152.15
2023-03-31T10:43:55.973Z,1151.20
2023-03-31T10:46:42.551Z,1154.57
2023-03-31T10:49:27.961Z,1140.60
2023-03-31T10:51:57.478Z,1115.28
2023-03-31T10:54:24.712Z,1102.15
2023-03-31T10:57:04.484Z,1081.60
2023-03-31T10:59:31.099Z,1077.90
2023-03-31T11:02:20.913Z,1095.25
2023-03-31T11:05:16.516Z,1083.88
2023-03-31T11:08:03.118Z,1084.82
2023-03-31T11:10:48.697Z,1077.82
2023-03-31T11:13:18.020Z,1081.47
2023-03-31T11:15:59.314Z,1088.72
2023-03-31T11:18:56.541Z,1101.50
2023-03-31T11:22:12.045Z,1093.68
2023-03-31T11:25:03.406Z,1088.45
2023-03-31T11:27:41.509Z,1086.38
2023-03-31T11:30:22.386Z,1098.05
2023-03-31T11:32:57.478Z,1095.72
2023-03-31T11:35:30.186Z,1095.93
2023-03-31T11:38:28.755Z,1090.75
2023-03-31T11:41:01.196Z,1093.65
2023-03-31T11:43:51.531Z,1084.20
2023-03-31T11:46:21.450Z,1061.13
2023-03-31T11:48:52.733Z,1033.43
2023-03-31T11:51:30.684Z,1031.90
2023-03-31T11:54:00.370Z,1010.72
2023-03-31T11:56:39.419Z,1011.58
2023-03-31T11:59:07.566Z,1008.00
2023-03-31T12:01:44.518Z,1023.40
2023-03-31T12:04:34.761Z,1047.00
2023-03-31T12:07:12.356Z,1063.68
2023-03-31T12:10:05.972Z,1070.68
2023-03-31T12:12:39.828Z,1078.07
2023-03-31T12:15:29.563Z,1082.00
2023-03-31T12:18:01.651Z,1078.63
2023-03-31T12:20:35.311Z,1073.88
2023-03-31T12:23:05.819Z,1071.38
2023-03-31T12:25:47.928Z,1070.40
2023-03-31T12:28:16.129Z,1078.63
2023-03-31T12:30:44.620Z,1077.13
2023-03-31T12:33:25.726Z,1048.28
2023-03-31T12:36:25.813Z,1032.03
2023-03-31T12:39:23.195Z,997.58
2023-03-31T12:42:13.824Z,960.28
2023-03-31T12:45:02.426Z,922.85
2023-03-31T12:47:46.183Z,904.60
2023-03-31T12:50:21.709Z,914.55
2023-03-31T12:53:03.348Z,905.10
2023-03-31T12:56:08.584Z,916.05
2023-03-31T12:58:39.642Z,896.67
2023-03-31T13:01:16.068Z,897.45
2023-03-31T13:03:50.510Z,916.10
2023-03-31T13:06:29.103Z,939.25
2023-03-31T13:08:57.030Z,960.65
2023-03-31T13:11:36.470Z,974.47
2023-03-31T13:14:16.871Z,981.67
2023-03-31T13:16:43.894Z,993.60
2023-03-31T13:19:23.998Z,997.13
2023-03-31T13:21:58.681Z,1008.33
2023-03-31T13:24:26.790Z,1016.13
2023-03-31T13:26:56.741Z,1024.50
2023-03-31T13:29:43.952Z,1022.42
2023-03-31T13:32:26.990Z,1028.47
2023-03-31T13:35:03.992Z,1032.95
2023-03-31T13:37:44.838Z,1030.18
2023-03-31T13:40:39.045Z,1019.83
2023-03-31T13:43:27.223Z,1010.33
2023-03-31T13:46:32.136Z,1009.25
2023-03-31T13:49:26.285Z,999.40
2023-03-31T13:51:59.454Z,1001.42
2023-03-31T13:54:54.440Z,1001.00
2023-03-31T13:57:56.307Z,1002.03
2023-03-31T14:00:53.719Z,1004.60
2023-03-31T14:03:37.410Z,1012.08
2023-03-31T14:06:12.419Z,1011.75
2023-03-31T14:08:39.075Z,1015.58
2023-03-31T14:11:38.031Z,1002.78
2023-03-31T14:14:25.145Z,1006.67
2023-03-31T14:16:53.064Z,1012.83
2023-03-31T14:19:55.715Z,1006.40
2023-03-31T14:22:41.102Z,997.85
2023-03-31T14:25:27.037Z,998.33
2023-03-31T14:28:18.486Z,992.92
2023-03-31T14:30:54.281Z,988.08
2023-03-31T14:33:21.796Z,992.90
2023-03-31T14:35:58.572Z,992.85
2023-03-31T14:38:29.734Z,986.50
2023-03-31T14:41:00.817Z,975.35
2023-03-31T14:43:36.739Z,969.72
2023-03-31T14:46:08.915Z,951.70
2023-03-31T14:48:45.608Z,924.08
2023-03-31T14:51:15.312Z,908.05
2023-03-31T14:53:43.421Z,903.05
2023-03-31T14:56:15.850Z,893.45
2023-03-31T14:58:50.472Z,887.38
2023-03-31T15:01:26.152Z,883.88
2023-03-31T15:03:54.364Z,886.80
2023-03-31T15:06:25.375Z,885.85
2023-03-31T15:08:56.310Z,884.33
2023-03-31T15:11:23.439Z,878.80
2023-03-31T15:14:04.355Z,871.30
2023-03-31T15:16:46.168Z,860.10
2023-03-31T15:19:19.651Z,854.10
2023-03-31T15:21:53.722Z,856.05
2023-03-31T15:24:20.793Z,854.60
2023-03-31T15:26:53.510Z,834.63
2023-03-31T15:29:25.256Z,847.03
2023-03-31T15:31:52.135Z,824.53
2023-03-31T15:34:28.299Z,844.60
2023-03-31T15:36:57.009Z,851.42
2023-03-31T15:39:26.351Z,835.50
2023-03-31T15:41:54.003Z,858.60
2023-03-31T15:44:44.381Z,854.85
2023-03-31T15:47:18.969Z,862.45
2023-03-31T15:50:10.112Z,869.60
2023-03-31T15:52:38.795Z,877.30
2023-03-31T15:55:27.205Z,880.75
2023-03-31T15:57:55.331Z,887.90
2023-03-31T16:00:34.208Z,879.38
2023-03-31T16:03:03.825Z,878.58
2023-03-31T16:08:26.508Z,884.63
2023-03-31T16:11:03.346Z,874.28
2023-03-31T16:13:31.665Z,874.47
2023-03-31T16:15:59.300Z,875.40
2023-03-31T16:18:37.400Z,869.55
2023-03-31T16:21:06.634Z,874.17
2023-03-31T16:23:38.356Z,875.50
2023-03-31T16:26:06.932Z,878.35
2023-03-31T16:28:36.153Z,870.00
2023-03-31T16:31:05.164Z,864.55
2023-03-31T16:33:53.690Z,858.33
2023-03-31T16:36:20.487Z,863.40
2023-03-31T16:38:47.206Z,858.30
2023-03-31T16:41:15.786Z,862.45
2023-03-31T16:43:45.349Z,853.05
2023-03-31T16:46:12.092Z,857.13
2023-03-31T16:48:38.814Z,844.22
2023-03-31T16:51:05.818Z,846.25
2023-03-31T16:53:34.713Z,844.30
2023-03-31T16:56:02.350Z,854.30
2023-03-31T16:58:29.468Z,852.85
2023-03-31T17:00:57.629Z,860.93
2023-03-31T17:03:24.540Z,856.70
2023-03-31T17:05:58.600Z,847.58
2023-03-31T17:08:27.595Z,859.88
2023-03-31T17:11:02.427Z,867.50
2023-03-31T17:13:30.014Z,855.88
2023-03-31T17:16:04.734Z,853.75
2023-03-31T17:18:39.822Z,858.10
2023-03-31T17:21:11.554Z,853.53
2023-03-31T17:23:39.268Z,856.08
2023-03-31T17:26:06.929Z,857.03
2023-03-31T17:28:34.235Z,864.67
2023-03-31T17:31:01.722Z,850.22
2023-03-31T17:33:28.527Z,852.42
2023-03-31T17:36:01.151Z,854.00
2023-03-31T17:38:28.757Z,850.83
2023-03-31T17:40:55.607Z,855.08
2023-03-31T17:43:22.448Z,846.63
2023-03-31T17:45:49.501Z,842.17
2023-03-31T17:48:16.517Z,845.40
2023-03-31T17:50:43.232Z,851.30
2023-03-31T17:53:09.818Z,847.80
2023-03-31T17:55:38.410Z,851.80
2023-03-31T17:58:06.400Z,845.50
2023-03-31T18:00:33.442Z,847.35
2023-03-31T18:03:00.327Z,849.38
2023-03-31T18:05:27.153Z,851.22
2023-03-31T18:07:53.812Z,852.85
2023-03-31T18:10:22.542Z,834.33
2023-03-31T18:12:49.257Z,849.85
2023-03-31T18:15:16.419Z,842.85
2023-03-31T18:17:43.301Z,842.92
2023-03-31T18:20:10.752Z,846.60
2023-03-31T18:22:37.789Z,852.13
2023-03-31T18:25:05.353Z,849.85
2023-03-31T18:27:32.893Z,843.60
2023-03-31T18:29:59.612Z,839.72
2023-03-31T18:32:26.376Z,841.92
2023-03-31T18:34:53.068Z,825.17
2023-03-31T18:37:19.703Z,846.60
2023-03-31T18:39:46.400Z,845.65
2023-03-31T18:42:13.081Z,842.53
2023-03-31T18:44:39.835Z,822.35
2023-03-31T18:47:06.681Z,826.72
2023-03-31T18:49:33.474Z,826.00
2023-03-31T18:52:02.358Z,824.70
2023-03-31T18:54:29.160Z,819.78
2023-03-31T18:56:56.536Z,819.38
2023-03-31T18:59:24.240Z,808.50
2023-03-31T19:01:51.480Z,811.40
2023-03-31T19:04:18.244Z,804.70
2023-03-31T19:06:44.950Z,808.65
2023-03-31T19:09:11.604Z,809.47
2023-03-31T19:11:38.253Z,803.90
2023-03-31T19:14:04.902Z,799.85
2023-03-31T19:16:31.885Z,802.15
2023-03-31T19:18:59.155Z,806.63
2023-03-31T19:21:27.001Z,819.50
2023-03-31T19:23:53.655Z,821.50
2023-03-31T19:26:20.982Z,815.78
2023-03-31T19:28:48.212Z,805.47
2023-03-31T19:31:15.445Z,811.17
2023-03-31T19:33:42.389Z,810.10
2023-03-31T19:36:09.433Z,806.97
2023-03-31T19:38:36.809Z,795.72
2023-03-31T19:41:05.091Z,800.22
2023-03-31T19:43:32.890Z,816.13
2023-03-31T19:46:00.845Z,808.15
2023-03-31T19:48:31.247Z,810.17
2023-03-31T19:50:59.803Z,810.97
2023-03-31T19:53:27.073Z,805.63
2023-03-31T19:55:56.810Z,827.88
2023-03-31T19:58:23.574Z,821.40
2023-03-31T20:00:54.831Z,814.95
2023-03-31T20:03:23.605Z,807.40
2023-03-31T20:05:51.843Z,811.95
2023-03-31T20:08:18.583Z,819.50
2023-03-31T20:10:45.356Z,819.08
2023-03-31T20:13:12.025Z,820.85
2023-03-31T20:15:40.405Z,816.28
2023-03-31T20:18:07.750Z,821.03
2023-03-31T20:20:34.934Z,808.40
2023-03-31T20:23:01.580Z,801.17
2023-03-31T20:25:28.411Z,815.88
2023-03-31T20:27:55.147Z,821.53
2023-03-31T20:30:21.766Z,817.30
2023-03-31T20:32:48.495Z,812.90
2023-03-31T20:35:15.154Z,818.58
2023-03-31T20:37:41.770Z,814.95
2023-03-31T20:40:08.803Z,826.40
2023-03-31T20:42:36.294Z,822.30
2023-03-31T20:45:03.187Z,820.75
2023-03-31T20:47:30.283Z,819.55
2023-03-31T20:49:56.874Z,821.17
2023-03-31T20:52:23.918Z,824.58
2023-03-31T20:54:51.206Z,809.83
2023-03-31T20:57:17.930Z,806.20
2023-03-31T20:59:45.418Z,805.88
2023-03-31T21:02:12.939Z,808.00
2023-03-31T21:04:39.658Z,801.13
2023-03-31T21:07:06.289Z,811.40
2023-03-31T21:09:32.976Z,808.80
2023-03-31T21:12:01.321Z,811.50
2023-03-31T21:14:28.085Z,808.70
2023-03-31T21:16:54.710Z,810.20
2023-03-31T21:19:21.399Z,808.65
2023-03-31T21:21:48.009Z,811.30
2023-03-31T21:24:14.612Z,817.60
2023-03-31T21:26:41.373Z,812.47
2023-03-31T21:29:08.021Z,819.65
2023-03-31T21:31:34.825Z,812.63
2023-03-31T21:34:02.523Z,821.15
2023-03-31T21:36:29.263Z,820.97
2023-03-31T21:38:57.268Z,813.42
2023-03-31T21:41:28.294Z,820.97
2023-03-31T21:43:55.513Z,817.50
2023-03-31T21:46:28.041Z,823.20
2023-03-31T21:48:56.285Z,819.45
2023-03-31T21:51:23.699Z,815.35
2023-03-31T21:53:55.338Z,823.40
2023-03-31T21:56:24.374Z,826.42
2023-03-31T21:58:51.054Z,819.03
2023-03-31T22:01:18.556Z,822.42
2023-03-31T22:03:45.861Z,820.63
2023-03-31T22:06:12.885Z,819.30
2023-03-31T22:08:39.906Z,817.17
2023-03-31T22:11:09.222Z,817.90
2023-03-31T22:13:36.747Z,823.10
2023-03-31T22:16:04.876Z,817.30
2023-03-31T22:18:31.618Z,812.65
2023-03-31T22:20:58.382Z,818.90
2023-03-31T22:23:25.651Z,816.53
2023-03-31T22:25:52.462Z,823.78
2023-03-31T22:28:19.150Z,827.42
2023-03-31T22:30:45.864Z,820.77
2023-03-31T22:33:12.596Z,823.15
2023-03-31T22:35:39.329Z,825.28
2023-03-31T22:38:06.697Z,823.55
2023-03-31T22:40:34.941Z,822.53
2023-03-31T22:43:01.841Z,817.80
2023-03-31T22:45:28.564Z,818.55
2023-03-31T22:47:55.464Z,818.00
2023-03-31T22:50:23.067Z,821.60
2023-03-31T22:52:49.857Z,822.95
2023-03-31T22:55:17.177Z,823.33
2023-03-31T22:57:44.517Z,817.47
2023-03-31T23:00:13.011Z,813.60
2023-03-31T23:02:40.575Z,819.20
2023-03-31T23:05:07.789Z,822.63
2023-03-31T23:07:34.671Z,805.95
2023-03-31T23:10:01.568Z,812.65
2023-03-31T23:12:28.726Z,811.93
2023-03-31T23:14:55.414Z,813.45
2023-03-31T23:17:22.151Z,813.20
2023-03-31T23:19:48.805Z,806.97
2023-03-31T23:22:15.716Z,809.67
2023-03-31T23:24:42.719Z,808.67
2023-03-31T23:27:09.423Z,806.85
2023-03-31T23:29:36.180Z,807.03
